Altama, Georgia
Current Conditions -  °F | °C
As of 11:15 AM on Thursday 18 Dec 2014 (Local Time) from KBQK Reporting Station
Clear Clear  
Wind Chill: 54°   Ceiling: Unl
Heat Index: 54°   Visibility: 10mi
Dew Point: 41°   Wind: 5mph
Humidity: 62%   Direction: 280°W
Pressure: 30.19"   Gusts: NA
Location:  31.1773°N, 81.4991°W
Report Text: KBQK 181615Z AUTO 28004KT 10SM CLR 12/05 A3019 RMK AO1
Loading
Personal Weather Stations






























Interactive Weather Map New forecast layout! Learn more

10-Day Weather Forecast

Advertisements
Track Severe Weather on mobile